createdAt,value
2022-08-05T00:00:31.808Z,998.50
2022-08-05T00:01:36.125Z,998.48
2022-08-05T00:02:31.988Z,998.40
2022-08-05T00:03:32.024Z,998.37
2022-08-05T00:04:32.126Z,998.38
2022-08-05T00:06:05.341Z,998.41
2022-08-05T00:06:36.050Z,998.38
2022-08-05T00:08:00.158Z,998.38
2022-08-05T00:08:35.506Z,998.36
2022-08-05T00:09:32.545Z,998.31
2022-08-05T00:10:32.660Z,998.30
2022-08-05T00:11:35.085Z,998.27
2022-08-05T00:12:32.834Z,998.37
2022-08-05T00:13:39.354Z,998.32
2022-08-05T00:14:33.005Z,998.34
2022-08-05T00:15:58.023Z,998.34
2022-08-05T00:16:35.711Z,998.39
2022-08-05T00:17:33.488Z,998.33
2022-08-05T00:18:33.335Z,998.32
2022-08-05T00:19:44.053Z,998.36
2022-08-05T00:20:33.529Z,998.37
2022-08-05T00:21:35.769Z,998.37
2022-08-05T00:22:33.650Z,998.36
2022-08-05T00:23:45.745Z,998.37
2022-08-05T00:24:33.827Z,998.31
2022-08-05T00:25:45.503Z,998.30
2022-08-05T00:26:34.010Z,998.27
2022-08-05T00:27:36.222Z,998.20
2022-08-05T00:28:34.155Z,998.19
2022-08-05T00:29:38.131Z,998.21
2022-08-05T00:30:34.345Z,998.14
2022-08-05T00:31:54.035Z,998.17
2022-08-05T00:32:34.473Z,998.19
2022-08-05T00:34:54.889Z,998.16
2022-08-05T00:35:10.391Z,998.17
2022-08-05T00:35:34.720Z,998.13
2022-08-05T00:37:08.986Z,998.10
2022-08-05T00:37:50.370Z,998.10
2022-08-05T00:38:35.008Z,998.03
2022-08-05T00:39:41.371Z,998.02
2022-08-05T00:40:35.195Z,998.03
2022-08-05T00:41:51.700Z,998.03
2022-08-05T00:42:35.362Z,998.01
2022-08-05T00:43:46.711Z,998.02
2022-08-05T00:44:35.521Z,997.98
2022-08-05T00:45:38.412Z,997.99
2022-08-05T00:46:42.586Z,997.97
2022-08-05T00:47:52.939Z,997.91
2022-08-05T00:48:35.838Z,997.92
2022-08-05T00:49:44.639Z,997.93
2022-08-05T00:50:36.002Z,997.98
2022-08-05T00:51:50.714Z,997.96
2022-08-05T00:52:36.157Z,998.04
2022-08-05T00:54:00.520Z,998.07
2022-08-05T00:54:36.333Z,998.09
2022-08-05T00:55:43.690Z,998.07
2022-08-05T00:56:36.513Z,998.05
2022-08-05T00:57:55.409Z,998.08
2022-08-05T00:58:36.955Z,998.06
2022-08-05T00:59:44.620Z,998.08
2022-08-05T01:00:36.917Z,998.05
2022-08-05T01:01:42.762Z,998.10
2022-08-05T01:02:37.023Z,998.12
2022-08-05T01:03:37.095Z,998.14
2022-08-05T01:04:37.185Z,998.19
2022-08-05T01:05:37.293Z,998.24
2022-08-05T01:06:37.336Z,998.32
2022-08-05T01:07:37.415Z,998.36
2022-08-05T01:08:42.853Z,998.40
2022-08-05T01:09:37.568Z,998.38
2022-08-05T01:10:37.670Z,998.39
2022-08-05T01:11:37.783Z,998.39
2022-08-05T01:12:37.782Z,998.38
2022-08-05T01:13:57.503Z,998.40
2022-08-05T01:14:37.947Z,998.39
2022-08-05T01:15:38.054Z,998.41
2022-08-05T01:16:38.111Z,998.42
2022-08-05T01:17:40.189Z,998.46
2022-08-05T01:18:38.267Z,998.45
2022-08-05T01:20:01.854Z,998.45
2022-08-05T01:20:38.481Z,998.47
2022-08-05T01:21:38.631Z,998.46
2022-08-05T01:22:38.618Z,998.48
2022-08-05T01:23:38.730Z,998.46
2022-08-05T01:24:38.793Z,998.43
2022-08-05T01:25:39.625Z,998.40
2022-08-05T01:26:38.931Z,998.34
2022-08-05T01:27:50.526Z,998.34
2022-08-05T01:28:39.535Z,998.30
2022-08-05T01:29:39.193Z,998.26
2022-08-05T01:30:39.272Z,998.27
2022-08-05T01:31:44.621Z,998.24
2022-08-05T01:32:39.430Z,998.23
2022-08-05T01:33:39.513Z,998.22
2022-08-05T01:34:39.591Z,998.24
2022-08-05T01:35:50.607Z,998.22
2022-08-05T01:36:42.316Z,998.26
2022-08-05T01:37:44.372Z,998.26
2022-08-05T01:38:39.934Z,998.28
2022-08-05T01:39:47.621Z,998.18
2022-08-05T01:40:41.983Z,998.17
2022-08-05T01:41:40.208Z,998.14
2022-08-05T01:42:40.778Z,998.11
2022-08-05T01:43:40.382Z,998.08
2022-08-05T01:44:40.446Z,998.02
2022-08-05T01:45:42.852Z,998.00
2022-08-05T01:46:42.599Z,997.96
2022-08-05T01:47:43.192Z,997.98
2022-08-05T01:48:40.764Z,998.01
2022-08-05T01:50:00.344Z,998.00
2022-08-05T01:50:40.947Z,997.96
2022-08-05T01:51:41.061Z,997.98
2022-08-05T01:52:41.116Z,997.94
2022-08-05T01:53:57.326Z,997.95
2022-08-05T01:54:45.928Z,998.01
2022-08-05T01:55:41.394Z,998.03
2022-08-05T01:58:11.869Z,998.06
2022-08-05T01:58:40.300Z,998.12
2022-08-05T01:58:45.729Z,998.18
2022-08-05T01:59:41.716Z,998.20
2022-08-05T02:00:41.801Z,998.20
2022-08-05T02:01:41.944Z,998.25
2022-08-05T02:02:46.499Z,998.23
2022-08-05T02:03:42.043Z,998.23
2022-08-05T02:04:42.116Z,998.33
2022-08-05T02:05:42.660Z,998.37
2022-08-05T02:06:42.279Z,998.44
2022-08-05T02:07:42.334Z,998.49
2022-08-05T02:08:54.937Z,998.51
2022-08-05T02:09:42.514Z,998.65
2022-08-05T02:10:42.574Z,998.77
2022-08-05T02:11:48.028Z,998.95
2022-08-05T02:12:42.752Z,999.04
2022-08-05T02:13:53.834Z,999.16
2022-08-05T02:14:43.250Z,999.29
2022-08-05T02:15:43.004Z,999.39
2022-08-05T02:16:44.057Z,999.52
2022-08-05T02:18:28.746Z,999.60
2022-08-05T02:18:43.252Z,999.70
2022-08-05T02:19:47.668Z,999.76
2022-08-05T02:20:43.398Z,999.72
2022-08-05T02:21:46.806Z,999.75
2022-08-05T02:22:43.542Z,999.76
2022-08-05T02:23:43.623Z,999.77
2022-08-05T02:24:43.694Z,999.72
2022-08-05T02:25:50.066Z,999.73
2022-08-05T02:26:54.051Z,999.72
2022-08-05T02:27:58.345Z,999.74
2022-08-05T02:28:45.817Z,999.72
2022-08-05T02:29:59.966Z,999.66
2022-08-05T02:30:51.649Z,999.69
2022-08-05T02:31:44.329Z,999.59
2022-08-05T02:32:44.388Z,999.53
2022-08-05T02:33:44.479Z,999.49
2022-08-05T02:34:44.561Z,999.52
2022-08-05T02:35:57.527Z,999.52
2022-08-05T02:36:44.770Z,999.57
2022-08-05T02:37:47.814Z,999.61
2022-08-05T02:38:44.914Z,999.60
2022-08-05T02:39:47.674Z,999.67
2022-08-05T02:40:45.027Z,999.66
2022-08-05T02:42:00.457Z,999.69
2022-08-05T02:42:45.187Z,999.68
2022-08-05T02:44:05.998Z,999.63
2022-08-05T02:44:45.377Z,999.58
2022-08-05T02:45:52.164Z,999.54
2022-08-05T02:46:58.312Z,999.55
2022-08-05T02:48:06.480Z,999.66
2022-08-05T02:48:45.712Z,999.77
2022-08-05T02:49:45.792Z,999.85
2022-08-05T02:50:45.873Z,999.89
2022-08-05T02:52:03.393Z,1000.00
2022-08-05T02:52:46.036Z,1000.01
2022-08-05T02:53:46.110Z,1000.03
2022-08-05T02:54:50.713Z,1000.04
2022-08-05T02:55:54.629Z,1000.07
2022-08-05T02:56:46.355Z,1000.08
2022-08-05T02:58:10.505Z,1000.02
2022-08-05T02:58:51.205Z,1000.02
2022-08-05T02:59:48.101Z,1000.02
2022-08-05T03:00:46.640Z,1000.02
2022-08-05T03:01:46.828Z,999.93
2022-08-05T03:02:46.825Z,999.84
2022-08-05T03:04:02.921Z,999.79
2022-08-05T03:04:46.977Z,999.89
2022-08-05T03:06:56.160Z,999.92
2022-08-05T03:07:03.570Z,1000.01
2022-08-05T03:08:04.620Z,1000.00
2022-08-05T03:08:47.290Z,999.97
2022-08-05T03:09:51.431Z,999.94
2022-08-05T03:11:53.096Z,999.98
2022-08-05T03:12:00.371Z,999.97
2022-08-05T03:12:47.602Z,1000.05
2022-08-05T03:13:52.120Z,1000.02
2022-08-05T03:14:48.170Z,1000.07
2022-08-05T03:15:47.815Z,1000.11
2022-08-05T03:16:47.868Z,1000.14
2022-08-05T03:17:47.971Z,1000.17
2022-08-05T03:18:48.033Z,1000.24
2022-08-05T03:19:48.115Z,1000.27
2022-08-05T03:20:48.635Z,1000.28
2022-08-05T03:21:49.283Z,1000.36
2022-08-05T03:22:50.009Z,1000.36
2022-08-05T03:23:48.437Z,1000.39
2022-08-05T03:24:50.759Z,1000.34
2022-08-05T03:26:30.164Z,1000.34
2022-08-05T03:26:49.371Z,1000.31
2022-08-05T03:28:00.255Z,1000.29
2022-08-05T03:28:48.817Z,1000.31
2022-08-05T03:30:07.660Z,1000.34
2022-08-05T03:30:48.949Z,1000.34
2022-08-05T03:31:56.590Z,1000.28
2022-08-05T03:32:49.112Z,1000.24
2022-08-05T03:33:52.811Z,1000.20
2022-08-05T03:34:50.986Z,1000.17
2022-08-05T03:35:49.868Z,1000.15
2022-08-05T03:36:49.393Z,1000.11
2022-08-05T03:37:49.486Z,1000.04
2022-08-05T03:38:53.214Z,999.99
2022-08-05T03:39:59.187Z,1000.03
2022-08-05T03:40:49.709Z,1000.03
2022-08-05T03:41:49.759Z,1000.01
2022-08-05T03:42:52.052Z,999.99
2022-08-05T03:44:09.534Z,999.97
2022-08-05T03:44:50.037Z,999.95
2022-08-05T03:45:58.339Z,999.96
2022-08-05T03:46:50.212Z,999.93
2022-08-05T03:47:50.299Z,999.87
2022-08-05T03:48:50.337Z,999.74
2022-08-05T03:49:51.425Z,999.59
2022-08-05T03:50:50.495Z,999.52
2022-08-05T03:52:38.381Z,999.43
2022-08-05T03:56:01.184Z,999.41
2022-08-05T03:56:18.055Z,999.49
2022-08-05T03:56:35.789Z,999.53
2022-08-05T03:57:42.388Z,999.58
2022-08-05T03:58:27.133Z,999.61
2022-08-05T03:59:24.611Z,999.63
2022-08-05T04:00:24.111Z,999.62
2022-08-05T04:01:24.148Z,999.61
2022-08-05T04:02:38.425Z,999.58
2022-08-05T04:03:28.509Z,999.52
2022-08-05T04:04:26.503Z,999.43
2022-08-05T04:05:24.389Z,999.43
2022-08-05T04:06:24.467Z,999.33
2022-08-05T04:07:24.895Z,999.29
2022-08-05T04:08:34.809Z,999.19
2022-08-05T04:09:26.422Z,999.15
2022-08-05T04:10:24.812Z,999.09
2022-08-05T04:11:24.877Z,999.09
2022-08-05T04:12:25.003Z,999.02
2022-08-05T04:13:25.031Z,998.99
2022-08-05T04:14:30.404Z,998.92
2022-08-05T04:15:25.201Z,998.74
2022-08-05T04:16:32.441Z,998.62
2022-08-05T04:17:25.641Z,998.42
2022-08-05T04:18:25.712Z,998.21
2022-08-05T04:19:25.475Z,998.01
2022-08-05T04:20:25.589Z,997.79
2022-08-05T04:22:08.671Z,997.61
2022-08-05T04:22:26.596Z,997.54
2022-08-05T04:23:58.388Z,997.64
2022-08-05T04:24:25.935Z,997.78
2022-08-05T04:25:56.577Z,997.92
2022-08-05T04:26:26.087Z,997.97
2022-08-05T04:27:33.316Z,997.95
2022-08-05T04:28:30.562Z,997.92
2022-08-05T04:29:27.096Z,997.92
2022-08-05T04:30:26.704Z,997.89
2022-08-05T04:31:27.702Z,997.90
2022-08-05T04:32:33.294Z,997.94
2022-08-05T04:33:54.669Z,997.97
2022-08-05T04:34:32.399Z,998.02
2022-08-05T04:35:26.865Z,998.06
2022-08-05T04:36:45.510Z,998.05
2022-08-05T04:38:00.672Z,998.11
2022-08-05T04:38:39.849Z,998.07
2022-08-05T04:39:27.706Z,998.08
2022-08-05T04:40:27.253Z,998.01
2022-08-05T04:41:36.641Z,998.03
2022-08-05T04:42:27.397Z,997.97
2022-08-05T04:43:27.465Z,997.91
2022-08-05T04:44:30.275Z,997.91
2022-08-05T04:45:31.378Z,997.91
2022-08-05T04:46:28.680Z,997.90
2022-08-05T04:47:27.826Z,998.02
2022-08-05T04:48:28.462Z,998.10
2022-08-05T04:50:01.353Z,998.26
2022-08-05T04:50:37.386Z,998.49
2022-08-05T04:51:30.301Z,998.71
2022-08-05T04:52:28.420Z,998.91
2022-08-05T04:53:28.288Z,999.01
2022-08-05T04:54:28.375Z,999.05
2022-08-05T04:55:49.789Z,999.06
2022-08-05T04:56:37.279Z,999.03
2022-08-05T04:57:29.619Z,998.94
2022-08-05T04:58:28.706Z,998.94
2022-08-05T04:59:38.891Z,998.86
2022-08-05T05:00:28.850Z,998.88
2022-08-05T05:02:05.574Z,998.90
2022-08-05T05:02:37.540Z,998.87
2022-08-05T05:03:29.046Z,998.93
2022-08-05T05:04:29.131Z,999.00
2022-08-05T05:05:29.480Z,999.04
2022-08-05T05:06:36.100Z,999.05
2022-08-05T05:07:32.281Z,999.09
2022-08-05T05:08:30.445Z,999.08
2022-08-05T05:09:29.531Z,999.13
2022-08-05T05:10:29.877Z,999.14
2022-08-05T05:11:41.403Z,999.10
2022-08-05T05:12:29.790Z,999.14
2022-08-05T05:13:32.357Z,999.18
2022-08-05T05:14:31.844Z,999.24
2022-08-05T05:15:56.819Z,999.22
2022-08-05T05:16:30.388Z,999.26
2022-08-05T05:17:56.694Z,999.27
2022-08-05T05:18:33.326Z,999.25
2022-08-05T05:19:36.933Z,999.26
2022-08-05T05:20:30.458Z,999.24
2022-08-05T05:21:30.462Z,999.27
2022-08-05T05:22:30.565Z,999.24
2022-08-05T05:23:39.023Z,999.22
2022-08-05T05:24:32.776Z,999.17
2022-08-05T05:25:40.246Z,999.19
2022-08-05T05:26:32.945Z,999.20
2022-08-05T05:27:44.309Z,999.25
2022-08-05T05:28:31.077Z,999.19
2022-08-05T05:30:03.519Z,999.17
2022-08-05T05:30:33.354Z,999.17
2022-08-05T05:32:12.412Z,999.13
2022-08-05T05:33:16.918Z,999.17
2022-08-05T05:34:10.318Z,999.19
2022-08-05T05:35:10.373Z,999.21
2022-08-05T05:36:10.471Z,999.28
2022-08-05T05:37:10.535Z,999.33
2022-08-05T05:38:13.451Z,999.38
2022-08-05T05:39:10.685Z,999.43
2022-08-05T05:40:10.764Z,999.49
2022-08-05T05:41:10.864Z,999.51
2022-08-05T05:42:10.929Z,999.48
2022-08-05T05:43:11.010Z,999.51
2022-08-05T05:44:35.761Z,999.44
2022-08-05T05:45:11.162Z,999.43
2022-08-05T05:46:15.834Z,999.44
2022-08-05T05:47:21.362Z,999.48
2022-08-05T05:48:11.385Z,999.52
2022-08-05T05:49:22.345Z,999.50
2022-08-05T05:50:11.519Z,999.50
2022-08-05T05:51:15.061Z,999.47
2022-08-05T05:52:26.373Z,999.49
2022-08-05T05:53:22.168Z,999.50
2022-08-05T05:54:11.833Z,999.47
2022-08-05T05:55:13.359Z,999.42
2022-08-05T05:56:11.990Z,999.42
2022-08-05T05:57:24.265Z,999.38
2022-08-05T05:58:12.108Z,999.42
2022-08-05T05:59:12.167Z,999.44
2022-08-05T06:00:12.259Z,999.48
2022-08-05T06:01:15.231Z,999.52
2022-08-05T06:02:12.410Z,999.45
2022-08-05T06:03:40.131Z,999.41
2022-08-05T06:04:13.072Z,999.33
2022-08-05T06:05:16.643Z,999.36
2022-08-05T06:06:12.837Z,999.36
2022-08-05T06:07:12.763Z,999.37
2022-08-05T06:08:12.867Z,999.42
2022-08-05T06:09:17.513Z,999.42
2022-08-05T06:10:13.034Z,999.44
2022-08-05T06:11:13.445Z,999.41
2022-08-05T06:12:13.205Z,999.38
2022-08-05T06:13:13.292Z,999.32
2022-08-05T06:14:13.375Z,999.28
2022-08-05T06:15:23.610Z,999.35
2022-08-05T06:16:28.884Z,999.33
2022-08-05T06:17:22.346Z,999.36
2022-08-05T06:18:13.716Z,999.41
2022-08-05T06:19:13.782Z,999.48
2022-08-05T06:20:18.911Z,999.51
2022-08-05T06:21:18.460Z,999.54
2022-08-05T06:22:14.016Z,999.50
2022-08-05T06:23:14.081Z,999.50
2022-08-05T06:24:14.722Z,999.53
2022-08-05T06:25:59.279Z,999.57
2022-08-05T06:26:20.710Z,999.63
2022-08-05T06:28:08.820Z,999.75
2022-08-05T06:28:21.049Z,999.74
2022-08-05T06:29:23.667Z,999.81
2022-08-05T06:30:17.653Z,999.86
2022-08-05T06:31:18.035Z,999.84
2022-08-05T06:32:25.465Z,999.78
2022-08-05T06:33:19.080Z,999.74
2022-08-05T06:34:14.946Z,999.74
2022-08-05T06:35:21.791Z,999.79
2022-08-05T06:36:15.122Z,999.79
2022-08-05T06:37:15.163Z,999.79
2022-08-05T06:38:15.266Z,999.77
2022-08-05T06:39:15.381Z,999.71
2022-08-05T06:40:18.473Z,999.68
2022-08-05T06:41:15.500Z,999.77
2022-08-05T06:42:15.547Z,999.77
2022-08-05T06:43:57.440Z,999.77
2022-08-05T06:44:15.727Z,999.75
2022-08-05T06:45:20.664Z,999.79
2022-08-05T06:46:15.904Z,999.89
2022-08-05T06:47:29.982Z,999.93
2022-08-05T06:48:53.712Z,999.96
2022-08-05T06:49:16.092Z,999.94
2022-08-05T06:50:17.238Z,999.94
2022-08-05T06:51:25.232Z,1000.00
2022-08-05T06:52:37.052Z,999.98
2022-08-05T06:53:22.446Z,999.99
2022-08-05T06:54:19.014Z,999.96
2022-08-05T06:55:16.547Z,999.97
2022-08-05T06:56:26.558Z,1000.01
2022-08-05T06:58:02.557Z,1000.01
2022-08-05T06:58:20.177Z,1000.00
2022-08-05T06:59:16.875Z,1000.02
2022-08-05T07:00:22.170Z,1000.07
2022-08-05T07:01:20.853Z,1000.05
2022-08-05T07:02:17.119Z,1000.08
2022-08-05T07:03:17.217Z,1000.11
2022-08-05T07:04:19.249Z,1000.12
2022-08-05T07:05:19.578Z,1000.14
2022-08-05T07:06:17.451Z,1000.15
2022-08-05T07:07:35.591Z,1000.21
2022-08-05T07:08:17.595Z,1000.17
2022-08-05T07:09:17.666Z,1000.22
2022-08-05T07:10:17.734Z,1000.17
2022-08-05T07:11:17.836Z,1000.16
2022-08-05T07:12:17.890Z,1000.12
2022-08-05T07:13:17.967Z,1000.19
2022-08-05T07:14:29.029Z,1000.23
2022-08-05T07:15:34.620Z,1000.26
2022-08-05T07:17:55.950Z,1000.26
2022-08-05T07:18:09.338Z,1000.26
2022-08-05T07:18:28.910Z,1000.26
2022-08-05T07:19:53.804Z,1000.25
2022-08-05T07:20:38.697Z,1000.26
2022-08-05T07:21:25.972Z,1000.28
2022-08-05T07:22:18.713Z,1000.29
2022-08-05T07:23:25.916Z,1000.32
2022-08-05T07:24:18.878Z,1000.30
2022-08-05T07:25:55.464Z,1000.32
2022-08-05T07:26:22.703Z,1000.28
2022-08-05T07:27:19.173Z,1000.27
2022-08-05T07:28:19.180Z,1000.29
2022-08-05T07:29:19.280Z,1000.31
2022-08-05T07:30:31.869Z,1000.33
2022-08-05T07:31:19.456Z,1000.31
2022-08-05T07:32:26.116Z,1000.33
2022-08-05T07:33:19.585Z,1000.32
2022-08-05T07:34:21.158Z,1000.28
2022-08-05T07:36:04.716Z,1000.33
2022-08-05T07:36:24.954Z,1000.29
2022-08-05T07:37:19.915Z,1000.32
2022-08-05T07:38:32.957Z,1000.34
2022-08-05T07:39:50.342Z,1000.36
2022-08-05T07:40:32.847Z,1000.41
2022-08-05T07:42:09.499Z,1000.42
2022-08-05T07:42:33.579Z,1000.45
2022-08-05T07:43:21.153Z,1000.42
2022-08-05T07:44:20.435Z,1000.46
2022-08-05T07:45:57.852Z,1000.43
2022-08-05T07:46:25.182Z,1000.45
2022-08-05T07:47:20.764Z,1000.49
2022-08-05T07:49:02.709Z,1000.49
2022-08-05T07:49:20.823Z,1000.49
2022-08-05T07:50:23.700Z,1000.54
2022-08-05T07:51:23.814Z,1000.55
2022-08-05T07:52:21.070Z,1000.59
2022-08-05T07:53:21.119Z,1000.62
2022-08-05T07:54:21.208Z,1000.63
2022-08-05T07:56:04.731Z,1000.65
2022-08-05T07:57:02.421Z,1000.67
2022-08-05T07:57:55.247Z,1000.76
2022-08-05T07:58:57.374Z,1000.73
2022-08-05T07:59:21.875Z,1000.74
2022-08-05T08:00:21.673Z,1000.72
2022-08-05T08:01:21.989Z,1000.74
2022-08-05T08:02:21.831Z,1000.78
2022-08-05T08:03:22.146Z,1000.69
2022-08-05T08:04:34.376Z,1000.71
2022-08-05T08:05:22.086Z,1000.71
2022-08-05T08:06:22.138Z,1000.79
2022-08-05T08:07:23.015Z,1000.84
2022-08-05T08:08:22.309Z,1000.79
2022-08-05T08:09:22.378Z,1000.88
2022-08-05T08:10:22.426Z,1000.90
2022-08-05T08:11:27.585Z,1000.95
2022-08-05T08:12:33.476Z,1000.91
2022-08-05T08:13:29.394Z,1000.92
2022-08-05T08:14:22.817Z,1000.98
2022-08-05T08:15:37.359Z,1000.98
2022-08-05T08:16:54.425Z,1000.96
2022-08-05T08:17:23.222Z,1000.93
2022-08-05T08:18:23.074Z,1000.96
2022-08-05T08:20:10.277Z,1001.00
2022-08-05T08:21:02.872Z,1000.99
2022-08-05T08:21:23.287Z,1001.03
2022-08-05T08:22:23.338Z,1001.03
2022-08-05T08:24:01.005Z,1001.05
2022-08-05T08:24:23.504Z,1001.07
2022-08-05T08:25:26.527Z,1001.11
2022-08-05T08:26:26.840Z,1001.09
2022-08-05T08:27:35.776Z,1001.08
2022-08-05T08:28:35.758Z,1001.08
2022-08-05T08:30:06.037Z,1001.10
2022-08-05T08:30:32.521Z,1001.06
2022-08-05T08:31:24.116Z,1001.09
2022-08-05T08:32:27.793Z,1001.06
2022-08-05T08:33:24.280Z,1001.05
2022-08-05T08:34:30.237Z,1001.05
2022-08-05T08:35:26.738Z,1001.05
2022-08-05T08:36:37.490Z,1001.03
2022-08-05T08:37:27.835Z,1001.07
2022-08-05T08:38:35.544Z,1001.11
2022-08-05T08:39:24.907Z,1001.14
2022-08-05T08:40:24.797Z,1001.18
2022-08-05T08:41:25.938Z,1001.18
2022-08-05T08:42:34.305Z,1001.19
2022-08-05T08:45:20.946Z,1001.21
2022-08-05T08:45:30.778Z,1001.21
2022-08-05T08:45:36.192Z,1001.19
2022-08-05T08:46:36.279Z,1001.20
2022-08-05T08:48:06.179Z,1001.24
2022-08-05T08:49:02.987Z,1001.24
2022-08-05T08:50:22.856Z,1001.23
2022-08-05T08:51:21.920Z,1001.27
2022-08-05T08:52:06.045Z,1001.23
2022-08-05T08:52:36.751Z,1001.27
2022-08-05T08:53:36.861Z,1001.27
2022-08-05T08:54:36.901Z,1001.26
2022-08-05T08:56:04.146Z,1001.23
2022-08-05T08:56:37.072Z,1001.24
2022-08-05T08:57:42.268Z,1001.21
2022-08-05T08:58:44.685Z,1001.23
2022-08-05T08:59:37.337Z,1001.18
2022-08-05T09:00:37.464Z,1001.18
2022-08-05T09:01:37.483Z,1001.14
2022-08-05T09:02:37.564Z,1001.18
2022-08-05T09:03:45.025Z,1001.09
2022-08-05T09:04:58.497Z,1001.14
2022-08-05T09:05:38.269Z,1001.06
2022-08-05T09:06:37.893Z,1001.05
2022-08-05T09:07:39.855Z,1000.99
2022-08-05T09:08:40.172Z,1001.02
2022-08-05T09:09:38.157Z,1001.01
2022-08-05T09:10:38.181Z,1001.00
2022-08-05T09:11:50.853Z,1001.01
2022-08-05T09:12:38.355Z,1001.00
2022-08-05T09:14:00.824Z,1000.98
2022-08-05T09:14:56.575Z,1001.05
2022-08-05T09:15:38.588Z,1001.04
2022-08-05T09:16:38.637Z,1001.10
2022-08-05T09:17:42.985Z,1001.10
2022-08-05T09:18:42.790Z,1001.09
2022-08-05T09:19:55.165Z,1001.05
2022-08-05T09:20:38.933Z,1001.05
2022-08-05T09:22:23.267Z,1001.07
2022-08-05T09:22:39.509Z,1001.12
2022-08-05T09:23:43.536Z,1001.14
2022-08-05T09:24:39.226Z,1001.18
2022-08-05T09:26:01.503Z,1001.21
2022-08-05T09:26:39.366Z,1001.29
2022-08-05T09:28:03.961Z,1001.21
2022-08-05T09:28:39.694Z,1001.36
2022-08-05T09:29:47.717Z,1001.26
2022-08-05T09:30:39.641Z,1001.31
2022-08-05T09:32:40.002Z,1001.29
2022-08-05T09:32:47.613Z,1001.28
2022-08-05T09:33:39.902Z,1001.25
2022-08-05T09:34:39.951Z,1001.27
2022-08-05T09:35:40.029Z,1001.29
2022-08-05T09:36:54.014Z,1001.32
2022-08-05T09:38:18.452Z,1001.39
2022-08-05T09:38:40.294Z,1001.38
2022-08-05T09:39:45.136Z,1001.40
2022-08-05T09:40:40.406Z,1001.37
2022-08-05T09:41:40.519Z,1001.44
2022-08-05T09:42:40.566Z,1001.42
2022-08-05T09:43:42.180Z,1001.47
2022-08-05T09:44:40.748Z,1001.48
2022-08-05T09:46:06.648Z,1001.46
2022-08-05T09:46:51.650Z,1001.46
2022-08-05T09:47:54.966Z,1001.46
2022-08-05T09:48:41.160Z,1001.47
2022-08-05T09:50:00.598Z,1001.52
2022-08-05T09:50:44.469Z,1001.64
2022-08-05T09:51:41.326Z,1001.61
2022-08-05T09:52:45.127Z,1001.64
2022-08-05T09:53:54.045Z,1001.57
2022-08-05T09:54:41.592Z,1001.70
2022-08-05T09:55:58.716Z,1001.70
2022-08-05T09:56:41.763Z,1001.68
2022-08-05T09:57:43.268Z,1001.71
2022-08-05T09:58:42.407Z,1001.68
2022-08-05T09:59:42.000Z,1001.66
2022-08-05T10:00:42.065Z,1001.70
2022-08-05T10:01:45.885Z,1001.67
2022-08-05T10:02:42.254Z,1001.66
2022-08-05T10:03:58.473Z,1001.70
2022-08-05T10:04:42.386Z,1001.79
2022-08-05T10:05:42.489Z,1001.77
2022-08-05T10:06:49.797Z,1001.86
2022-08-05T10:08:10.680Z,1001.86
2022-08-05T10:08:42.763Z,1001.89
2022-08-05T10:09:44.926Z,1001.89
2022-08-05T10:10:42.893Z,1001.92
2022-08-05T10:11:42.974Z,1001.94
2022-08-05T10:12:50.015Z,1001.98
2022-08-05T10:13:45.755Z,1002.00
2022-08-05T10:14:43.196Z,1002.04
2022-08-05T10:15:43.291Z,1002.01
2022-08-05T10:16:53.100Z,1002.04
2022-08-05T10:17:47.435Z,1002.08
2022-08-05T10:18:43.537Z,1002.15
2022-08-05T10:20:03.577Z,1002.19
2022-08-05T10:20:44.162Z,1002.19
2022-08-05T10:21:43.769Z,1002.22
2022-08-05T10:22:50.824Z,1002.23
2022-08-05T10:23:59.345Z,1002.31
2022-08-05T10:24:44.012Z,1002.32
2022-08-05T10:25:44.106Z,1002.32
2022-08-05T10:26:51.169Z,1002.33
2022-08-05T10:28:16.706Z,1002.34
2022-08-05T10:28:44.935Z,1002.37
2022-08-05T10:30:06.867Z,1002.38
2022-08-05T10:32:53.842Z,1002.38
2022-08-05T10:33:03.969Z,1002.43
2022-08-05T10:33:14.485Z,1002.50
2022-08-05T10:34:09.395Z,1002.48
2022-08-05T10:35:09.384Z,1002.55
2022-08-05T10:36:09.455Z,1002.55
2022-08-05T10:37:09.505Z,1002.61
2022-08-05T10:38:11.895Z,1002.62
2022-08-05T10:39:11.812Z,1002.66
2022-08-05T10:40:18.094Z,1002.63
2022-08-05T10:41:09.851Z,1002.66
2022-08-05T10:42:11.314Z,1002.66
2022-08-05T10:43:12.411Z,1002.67
2022-08-05T10:44:10.201Z,1002.73
2022-08-05T10:45:23.445Z,1002.75
2022-08-05T10:46:10.537Z,1002.76
2022-08-05T10:47:10.318Z,1002.77
2022-08-05T10:48:31.422Z,1002.82
2022-08-05T10:49:16.461Z,1002.79
2022-08-05T10:50:31.980Z,1002.79
2022-08-05T10:51:21.397Z,1002.82
2022-08-05T10:52:10.741Z,1002.76
2022-08-05T10:53:10.782Z,1002.82
2022-08-05T10:54:28.570Z,1002.83
2022-08-05T10:55:10.928Z,1002.88
2022-08-05T10:56:21.272Z,1002.87
2022-08-05T10:57:11.105Z,1002.89
2022-08-05T10:58:11.627Z,1002.89
2022-08-05T10:59:12.603Z,1002.92
2022-08-05T11:00:12.154Z,1002.91
2022-08-05T11:01:11.558Z,1002.90
2022-08-05T11:02:14.412Z,1002.90
2022-08-05T11:03:25.532Z,1002.94
2022-08-05T11:04:11.695Z,1002.95
2022-08-05T11:05:11.740Z,1002.94
2022-08-05T11:06:15.430Z,1002.97
2022-08-05T11:07:11.895Z,1002.99
2022-08-05T11:08:33.656Z,1002.97
2022-08-05T11:09:13.069Z,1003.01
2022-08-05T11:10:12.109Z,1003.03
2022-08-05T11:11:16.498Z,1003.04
2022-08-05T11:12:12.262Z,1003.09
2022-08-05T11:13:12.342Z,1003.11
2022-08-05T11:14:12.422Z,1003.11
2022-08-05T11:15:20.194Z,1003.10
2022-08-05T11:16:12.560Z,1003.10
2022-08-05T11:18:07.367Z,1003.15
2022-08-05T11:18:14.508Z,1003.18
2022-08-05T11:20:10.193Z,1003.21
2022-08-05T11:20:18.328Z,1003.24
2022-08-05T11:21:12.938Z,1003.26
2022-08-05T11:22:13.026Z,1003.28
2022-08-05T11:23:13.136Z,1003.28
2022-08-05T11:24:29.831Z,1003.32
2022-08-05T11:26:03.200Z,1003.33
2022-08-05T11:26:13.384Z,1003.37
2022-08-05T11:27:13.483Z,1003.40
2022-08-05T11:28:17.299Z,1003.41
2022-08-05T11:29:14.453Z,1003.42
2022-08-05T11:30:13.717Z,1003.39
2022-08-05T11:31:51.825Z,1003.37
2022-08-05T11:32:13.852Z,1003.44
2022-08-05T11:33:13.926Z,1003.42
2022-08-05T11:34:15.077Z,1003.48
2022-08-05T11:35:15.515Z,1003.47
2022-08-05T11:36:14.152Z,1003.53
2022-08-05T11:38:30.350Z,1003.56
2022-08-05T11:38:45.949Z,1003.56
2022-08-05T11:39:14.479Z,1003.59
2022-08-05T11:40:14.466Z,1003.59
2022-08-05T11:41:56.199Z,1003.66
2022-08-05T11:42:18.425Z,1003.64
2022-08-05T11:43:14.691Z,1003.61
2022-08-05T11:44:40.390Z,1003.68
2022-08-05T11:45:26.862Z,1003.68
2022-08-05T11:46:32.252Z,1003.65
2022-08-05T11:47:18.642Z,1003.67
2022-08-05T11:48:15.099Z,1003.69
2022-08-05T11:49:15.181Z,1003.71
2022-08-05T11:50:15.242Z,1003.68
2022-08-05T11:51:44.186Z,1003.73
2022-08-05T11:52:15.375Z,1003.69
2022-08-05T11:53:15.548Z,1003.65
2022-08-05T11:54:15.590Z,1003.64
2022-08-05T11:55:15.638Z,1003.65
2022-08-05T11:56:15.689Z,1003.64
2022-08-05T11:57:25.089Z,1003.63
2022-08-05T11:58:17.455Z,1003.66
2022-08-05T11:59:15.958Z,1003.65
2022-08-05T12:00:16.023Z,1003.70
2022-08-05T12:01:19.179Z,1003.69
2022-08-05T12:02:29.781Z,1003.61
2022-08-05T12:03:16.385Z,1003.57
2022-08-05T12:04:16.502Z,1003.55
2022-08-05T12:05:18.044Z,1003.56
2022-08-05T12:06:16.550Z,1003.55
2022-08-05T12:07:16.712Z,1003.55
2022-08-05T12:08:17.908Z,1003.56
2022-08-05T12:09:19.956Z,1003.56
2022-08-05T12:10:16.825Z,1003.61
2022-08-05T12:11:17.242Z,1003.59
2022-08-05T12:12:16.983Z,1003.61
2022-08-05T12:13:27.746Z,1003.63
2022-08-05T12:14:17.247Z,1003.64
2022-08-05T12:15:17.218Z,1003.64
2022-08-05T12:16:17.289Z,1003.61
2022-08-05T12:18:02.498Z,1003.66
2022-08-05T12:18:17.595Z,1003.65
2022-08-05T12:20:27.311Z,1003.67
2022-08-05T12:20:38.094Z,1003.66
2022-08-05T12:21:17.771Z,1003.71